Terminal Aerodrome Forecast
Issued by NWS Quad Cities IA IL

Home | Current Version | Previous Version | Text Only | Print | Product List | Glossary On
Versions: 1 2 3 4 5 6 7 8 9 10 11 12 13 14 15 16
000
FTUS43 KDVN 031120
TAFMLI
TAF
KMLI 031120Z 0312/0412 11005KT P6SM BKN250
     FM031500 18008KT P6SM BKN060
     FM040000 14006KT P6SM BKN120 PROB30 0405/0409 4SM TSRA
      BKN035CB=

USA.gov is the U.S. government's official web portal to all federal, state and local government web resources and services.